Time;durP1;ratioP1;P1;durP2;ratioP2;P2;SDS_P1;SDS_P2;PMS_P1;PMS_P2;Temp;Humidity;BMP_temperature;BMP_pressure;BME280_temperature;BME280_humidity;BME280_pressure;Samples;Min_cycle;Max_cycle;Signal;HPM_P1;HPM_P2
2023/06/08 00:02:23;;;;;;;5.37;4.97;;;24.60;51.30;;;;;;6185495;23;20757;-70
2023/06/08 00:04:55;;;;;;;5.30;4.83;;;24.60;51.20;;;;;;6185722;23;20722;-70
2023/06/08 00:07:24;;;;;;;5.27;4.77;;;24.60;51.30;;;;;;6185042;23;20433;-70
2023/06/08 00:09:50;;;;;;;5.30;4.90;;;24.60;51.30;;;;;;6185121;23;20460;-70
2023/06/08 00:12:17;;;;;;;5.57;4.53;;;24.60;51.20;;;;;;6185079;23;20403;-69
2023/06/08 00:14:43;;;;;;;4.90;4.50;;;24.60;51.20;;;;;;6184910;23;20391;-70
2023/06/08 00:17:10;;;;;;;5.10;4.30;;;24.60;51.20;;;;;;6185077;23;20378;-70
2023/06/08 00:19:38;;;;;;;5.47;5.07;;;24.60;51.20;;;;;;6184415;23;20214;-69
2023/06/08 00:22:05;;;;;;;5.23;4.83;;;24.60;51.30;;;;;;6184863;23;20367;-70
2023/06/08 00:24:31;;;;;;;4.57;4.17;;;24.60;51.30;;;;;;6184756;23;20398;-70
2023/06/08 00:26:57;;;;;;;4.90;4.50;;;24.60;51.30;;;;;;6184794;23;20477;-70
2023/06/08 00:29:22;;;;;;;6.90;5.73;;;24.60;51.30;;;;;;6184835;23;20874;-70
2023/06/08 00:31:48;;;;;;;5.07;4.67;;;24.60;51.30;;;;;;6158375;23;20152;-69
2023/06/08 00:34:15;;;;;;;5.17;4.53;;;24.60;51.30;;;;;;6184733;23;20240;-69
2023/06/08 00:36:40;;;;;;;5.53;5.10;;;24.60;51.30;;;;;;6184799;23;20410;-70
2023/06/08 00:39:06;;;;;;;5.17;4.67;;;24.60;51.30;;;;;;6184818;23;20588;-70
2023/06/08 00:41:31;;;;;;;5.00;4.60;;;24.60;51.30;;;;;;6184836;23;20160;-70
2023/06/08 00:43:57;;;;;;;5.33;4.83;;;24.60;51.30;;;;;;6184704;23;20175;-70
2023/06/08 00:46:25;;;;;;;5.17;4.77;;;24.60;51.30;;;;;;6184576;23;20218;-70
2023/06/08 00:48:54;;;;;;;5.13;4.70;;;24.60;51.30;;;;;;6158264;23;20156;-69
2023/06/08 00:51:21;;;;;;;5.30;4.90;;;24.60;51.30;;;;;;6184678;23;20371;-69
2023/06/08 00:53:47;;;;;;;4.77;4.37;;;24.60;51.40;;;;;;6184480;23;20494;-70
2023/06/08 00:56:16;;;;;;;5.30;4.80;;;24.60;51.40;;;;;;6184631;23;20399;-70
2023/06/08 00:58:46;;;;;;;5.13;4.73;;;24.50;51.30;;;;;;6184594;23;20544;-70
2023/06/08 01:01:18;;;;;;;5.10;4.60;;;24.60;51.40;;;;;;6184496;23;20838;-70
2023/06/08 01:03:45;;;;;;;5.60;5.10;;;24.60;51.40;;;;;;6184546;23;20356;-70
2023/06/08 01:06:13;;;;;;;5.37;4.87;;;24.60;51.40;;;;;;6184791;23;20423;-69
2023/06/08 01:09:12;;;;;;;5.13;4.63;;;24.60;51.40;;;;;;6184477;23;20378;-69
2023/06/08 01:12:02;;;;;;;5.37;4.87;;;24.60;51.30;;;;;;6184888;23;20723;-69
2023/06/08 01:14:38;;;;;;;4.60;4.20;;;24.60;51.40;;;;;;6158147;23;20391;-70
2023/06/08 01:17:09;;;;;;;5.10;4.70;;;24.50;51.30;;;;;;6184500;23;20358;-70
2023/06/08 01:19:47;;;;;;;4.93;4.50;;;24.50;51.40;;;;;;6184551;23;20900;-69
2023/06/08 01:22:56;;;;;;;6.77;4.87;;;24.50;51.90;;;;;;6184395;23;20352;-70
2023/06/08 01:25:26;;;;;;;4.60;4.10;;;24.50;51.40;;;;;;6160299;23;20403;-70
2023/06/08 01:28:04;;;;;;;5.17;4.77;;;24.50;51.40;;;;;;6184255;23;20810;-69
2023/06/08 01:30:30;;;;;;;4.47;4.10;;;24.50;51.40;;;;;;6157842;23;20932;-69
2023/06/08 01:32:55;;;;;;;4.90;4.50;;;24.50;51.40;;;;;;6184319;23;20386;-69
2023/06/08 01:35:21;;;;;;;5.17;4.77;;;24.50;51.50;;;;;;6184217;23;20172;-70
2023/06/08 01:37:52;;;;;;;4.40;4.10;;;24.50;51.40;;;;;;6184296;23;20194;-70
2023/06/08 01:40:23;;;;;;;5.23;4.83;;;24.50;51.30;;;;;;6184266;23;20148;-69
2023/06/08 01:42:51;;;;;;;4.20;3.90;;;24.50;51.40;;;;;;6184192;23;20450;-69
2023/06/08 01:45:21;;;;;;;4.53;4.13;;;24.50;51.40;;;;;;6157759;23;20490;-70
2023/06/08 01:47:51;;;;;;;4.13;3.83;;;24.50;51.40;;;;;;6184051;23;20493;-70
2023/06/08 01:50:18;;;;;;;5.27;4.77;;;24.60;51.50;;;;;;6184493;23;20363;-70
2023/06/08 01:52:44;;;;;;;5.83;5.37;;;24.50;52.00;;;;;;6184180;23;20470;-69
2023/06/08 01:55:17;;;;;;;4.50;4.10;;;24.50;51.50;;;;;;6184117;23;20418;-69
2023/06/08 01:57:43;;;;;;;4.97;4.57;;;24.50;51.40;;;;;;6184171;23;20418;-69
2023/06/08 02:00:09;;;;;;;4.80;4.40;;;24.50;51.40;;;;;;6184138;23;20856;-69
2023/06/08 02:02:37;;;;;;;4.70;4.30;;;24.50;51.50;;;;;;6184062;23;20375;-69
2023/06/08 02:05:03;;;;;;;4.57;4.27;;;24.50;51.40;;;;;;6184049;23;20402;-69
2023/06/08 02:07:30;;;;;;;5.17;4.77;;;24.50;51.40;;;;;;6184097;23;20421;-69
2023/06/08 02:09:56;;;;;;;4.20;3.90;;;24.50;51.40;;;;;;6184112;23;20752;-70
2023/06/08 02:12:21;;;;;;;4.73;4.33;;;24.50;51.40;;;;;;6184096;23;20379;-70
2023/06/08 02:14:47;;;;;;;4.10;3.80;;;24.50;51.40;;;;;;6184032;23;20248;-70
2023/06/08 02:17:18;;;;;;;4.37;3.97;;;24.50;51.40;;;;;;6183978;23;20227;-69
2023/06/08 02:19:45;;;;;;;4.90;4.50;;;24.50;51.40;;;;;;6184399;23;20586;-69
2023/06/08 02:22:10;;;;;;;4.43;4.00;;;24.50;51.40;;;;;;6184467;23;20454;-69
2023/06/08 02:24:36;;;;;;;4.83;4.40;;;24.50;51.40;;;;;;6184445;23;20476;-69
2023/06/08 02:27:02;;;;;;;5.17;4.77;;;24.50;51.40;;;;;;6183972;23;20180;-70
2023/06/08 02:29:28;;;;;;;4.40;4.00;;;24.50;51.50;;;;;;6184512;23;20158;-69
2023/06/08 02:31:53;;;;;;;4.37;4.07;;;24.50;51.40;;;;;;6184141;23;20783;-70
2023/06/08 02:34:19;;;;;;;4.47;4.17;;;24.50;51.50;;;;;;6157608;23;20175;-68
2023/06/08 02:36:47;;;;;;;4.07;3.80;;;24.50;51.50;;;;;;6157970;23;20533;-70
2023/06/08 02:39:13;;;;;;;4.30;3.93;;;24.50;51.40;;;;;;6183894;23;20151;-70
2023/06/08 02:41:39;;;;;;;4.83;4.43;;;24.50;51.50;;;;;;6184674;23;20375;-69
2023/06/08 02:44:04;;;;;;;4.83;4.37;;;24.50;51.40;;;;;;6185852;23;20405;-69
2023/06/08 02:46:31;;;;;;;4.30;4.00;;;24.50;51.50;;;;;;6185780;23;20178;-69
2023/06/08 02:48:56;;;;;;;4.47;4.07;;;24.50;51.40;;;;;;6185855;23;20156;-69
2023/06/08 02:51:22;;;;;;;4.90;4.50;;;24.50;51.40;;;;;;6185849;23;20405;-69
2023/06/08 02:53:47;;;;;;;4.67;4.27;;;24.50;51.40;;;;;;6185810;23;20152;-69
2023/06/08 02:56:13;;;;;;;5.53;4.23;;;24.50;51.50;;;;;;6185638;23;20174;-69
2023/06/08 02:58:41;;;;;;;4.53;4.23;;;24.50;51.50;;;;;;6184915;23;20191;-68
2023/06/08 03:01:14;;;;;;;4.67;4.30;;;24.50;51.40;;;;;;6185260;23;20606;-70
2023/06/08 03:03:41;;;;;;;4.77;4.47;;;24.50;51.50;;;;;;6183312;23;20374;-70
2023/06/08 03:06:07;;;;;;;4.67;4.27;;;24.50;51.40;;;;;;6183344;23;20780;-70
2023/06/08 03:08:32;;;;;;;4.43;4.03;;;24.50;51.40;;;;;;6183385;23;20386;-70
2023/06/08 03:10:58;;;;;;;3.83;3.57;;;24.50;51.40;;;;;;6183413;23;20148;-70
2023/06/08 03:13:24;;;;;;;4.47;4.17;;;24.50;51.50;;;;;;6185346;23;20148;-71
2023/06/08 03:15:52;;;;;;;4.37;4.07;;;24.50;51.50;;;;;;6185422;23;20692;-70
2023/06/08 03:18:18;;;;;;;4.03;3.73;;;24.50;51.50;;;;;;6185470;23;20148;-70
2023/06/08 03:20:44;;;;;;;4.17;3.83;;;24.50;51.50;;;;;;6185573;23;20382;-70
2023/06/08 03:23:09;;;;;;;4.40;4.00;;;24.50;51.50;;;;;;6185503;23;20143;-70
2023/06/08 03:25:36;;;;;;;4.50;4.20;;;24.50;51.50;;;;;;6185478;23;20246;-70
2023/06/08 03:28:02;;;;;;;4.60;4.20;;;24.50;51.50;;;;;;6185552;23;20152;-68
2023/06/08 03:30:30;;;;;;;5.30;3.53;;;24.40;51.40;;;;;;6159000;23;20433;-69
2023/06/08 03:32:56;;;;;;;5.10;4.70;;;24.50;51.50;;;;;;6185667;23;20367;-69
2023/06/08 03:35:21;;;;;;;3.90;3.60;;;24.40;51.50;;;;;;6185379;23;20728;-69
2023/06/08 03:37:47;;;;;;;4.13;3.73;;;24.50;51.60;;;;;;6185303;23;20159;-69
2023/06/08 03:40:13;;;;;;;4.43;4.03;;;24.40;51.40;;;;;;6185698;23;20155;-71
2023/06/08 03:42:38;;;;;;;4.67;4.27;;;24.40;51.40;;;;;;6185539;23;20210;-70
2023/06/08 03:45:05;;;;;;;4.53;4.13;;;24.40;51.40;;;;;;6185657;23;20186;-69
2023/06/08 03:47:31;;;;;;;4.33;4.00;;;24.50;51.50;;;;;;6185271;23;20199;-69
2023/06/08 03:49:57;;;;;;;3.80;3.50;;;24.40;51.40;;;;;;6185733;23;20908;-70
2023/06/08 03:52:22;;;;;;;4.33;4.03;;;24.40;51.40;;;;;;6158861;23;20463;-69
2023/06/08 03:54:48;;;;;;;5.10;4.60;;;24.40;51.40;;;;;;6184782;23;20773;-69
2023/06/08 03:57:15;;;;;;;5.23;4.83;;;24.50;51.50;;;;;;6185109;23;20164;-70
2023/06/08 03:59:41;;;;;;;5.00;4.60;;;24.50;51.50;;;;;;6185271;23;20231;-70
2023/06/08 04:02:06;;;;;;;4.50;4.10;;;24.50;51.40;;;;;;6185156;23;20383;-70
2023/06/08 04:04:34;;;;;;;4.37;3.90;;;24.50;51.40;;;;;;6158803;23;20171;-71
2023/06/08 04:07:00;;;;;;;5.30;4.80;;;24.50;51.40;;;;;;6185052;23;20210;-70
2023/06/08 04:09:29;;;;;;;4.27;3.97;;;24.50;51.40;;;;;;6185160;23;20375;-69
2023/06/08 04:11:56;;;;;;;4.47;4.07;;;24.50;51.30;;;;;;6185492;23;20534;-70
2023/06/08 04:14:22;;;;;;;4.97;4.33;;;24.50;51.30;;;;;;6184956;23;20862;-70
2023/06/08 04:16:48;;;;;;;4.50;4.10;;;24.50;51.40;;;;;;6185294;23;20398;-70
2023/06/08 04:19:13;;;;;;;4.40;4.00;;;24.50;51.40;;;;;;6184990;23;20182;-69
2023/06/08 04:21:39;;;;;;;3.87;3.57;;;24.50;51.40;;;;;;6158552;23;20194;-68
2023/06/08 04:24:05;;;;;;;5.30;4.90;;;24.50;51.40;;;;;;6184887;23;20214;-70
2023/06/08 04:26:32;;;;;;;4.70;4.30;;;24.50;51.40;;;;;;6184862;23;20242;-69
2023/06/08 04:28:58;;;;;;;4.80;4.40;;;24.50;51.50;;;;;;6184952;23;20379;-69
2023/06/08 04:31:23;;;;;;;4.60;4.20;;;24.50;51.50;;;;;;6184860;23;20387;-69
2023/06/08 04:33:49;;;;;;;4.73;4.33;;;24.50;51.50;;;;;;6185134;23;20155;-70
2023/06/08 04:36:16;;;;;;;4.70;4.30;;;24.50;51.50;;;;;;6184878;23;20540;-70
2023/06/08 04:38:42;;;;;;;4.70;4.30;;;24.50;51.50;;;;;;6184748;23;20636;-70
2023/06/08 04:41:08;;;;;;;5.33;4.80;;;24.50;51.50;;;;;;6185200;23;20450;-69
2023/06/08 04:43:34;;;;;;;4.53;4.13;;;24.50;51.60;;;;;;6184762;23;20148;-69
2023/06/08 04:46:04;;;;;;;4.13;3.83;;;24.50;51.50;;;;;;6184597;23;20521;-68
2023/06/08 04:48:33;;;;;;;5.33;4.93;;;24.50;51.50;;;;;;6185151;23;20462;-68
2023/06/08 04:51:01;;;;;;;5.50;5.00;;;24.50;51.50;;;;;;6184741;23;20834;-70
2023/06/08 04:53:27;;;;;;;5.00;4.60;;;24.50;51.60;;;;;;6185062;23;20929;-69
2023/06/08 04:55:59;;;;;;;5.50;5.10;;;24.50;51.50;;;;;;6184454;23;20410;-69
2023/06/08 04:58:28;;;;;;;5.20;4.70;;;24.50;51.60;;;;;;6184747;23;20359;-69
2023/06/08 05:00:55;;;;;;;5.20;4.80;;;24.50;51.60;;;;;;6184951;23;20395;-70
2023/06/08 05:03:21;;;;;;;4.67;4.27;;;24.50;51.60;;;;;;6184741;23;20376;-70
2023/06/08 05:05:47;;;;;;;5.37;4.90;;;24.50;51.60;;;;;;6184334;23;20395;-69
2023/06/08 05:08:13;;;;;;;5.70;5.20;;;24.50;51.60;;;;;;6184879;23;20413;-70
2023/06/08 05:10:39;;;;;;;4.70;4.30;;;24.50;51.60;;;;;;6184579;23;20376;-69
2023/06/08 05:13:05;;;;;;;4.80;4.40;;;24.50;51.60;;;;;;6184544;23;20371;-70
2023/06/08 05:15:31;;;;;;;5.00;4.50;;;24.50;51.60;;;;;;6184391;23;20168;-70
2023/06/08 05:17:57;;;;;;;4.97;4.57;;;24.50;51.60;;;;;;6184459;23;20167;-70
2023/06/08 05:20:24;;;;;;;5.30;4.80;;;24.50;51.70;;;;;;6184725;23;20450;-71
2023/06/08 05:22:50;;;;;;;4.53;4.13;;;24.50;51.70;;;;;;6157976;23;20391;-70
2023/06/08 05:25:16;;;;;;;5.07;4.67;;;24.60;51.70;;;;;;6184580;23;20939;-70
2023/06/08 05:27:41;;;;;;;5.33;4.83;;;24.50;51.60;;;;;;6184297;23;20222;-70
2023/06/08 05:30:08;;;;;;;4.40;4.00;;;24.60;51.70;;;;;;6184630;23;20514;-71
2023/06/08 05:32:33;;;;;;;5.30;4.90;;;24.60;51.70;;;;;;6184716;23;20248;-71
2023/06/08 05:35:00;;;;;;;5.13;4.73;;;24.60;51.70;;;;;;6184275;23;20427;-70
2023/06/08 05:37:26;;;;;;;5.17;4.77;;;24.60;51.70;;;;;;6158265;23;20167;-70
2023/06/08 05:39:51;;;;;;;9.63;4.60;;;24.60;51.70;;;;;;6157882;23;20399;-70
2023/06/08 05:42:17;;;;;;;5.20;4.73;;;24.60;51.70;;;;;;6184587;23;20183;-71
2023/06/08 05:44:43;;;;;;;5.80;5.30;;;24.60;51.80;;;;;;6184097;23;20523;-70
2023/06/08 05:47:08;;;;;;;6.53;4.93;;;24.60;51.80;;;;;;6184068;23;20210;-70
2023/06/08 05:49:34;;;;;;;4.80;4.37;;;24.60;52.30;;;;;;6184473;23;20382;-69
2023/06/08 05:52:00;;;;;;;5.20;4.80;;;24.60;51.70;;;;;;6184193;23;20222;-69
2023/06/08 05:54:25;;;;;;;5.27;4.87;;;24.60;51.80;;;;;;6182819;23;20401;-71
2023/06/08 05:56:51;;;;;;;5.03;4.63;;;24.60;51.80;;;;;;6184013;23;20631;-69
2023/06/08 05:59:16;;;;;;;4.80;4.40;;;24.60;51.80;;;;;;6184352;23;20214;-68
2023/06/08 06:01:42;;;;;;;5.03;4.63;;;24.60;51.80;;;;;;6184112;23;20159;-70
2023/06/08 06:04:08;;;;;;;5.37;4.93;;;24.60;51.80;;;;;;6184264;23;20195;-69
2023/06/08 06:06:35;;;;;;;4.80;4.40;;;24.60;51.80;;;;;;6183962;23;20232;-70
2023/06/08 06:09:03;;;;;;;5.13;4.63;;;24.60;51.80;;;;;;6184275;23;20151;-70
2023/06/08 06:11:30;;;;;;;5.50;4.90;;;24.60;51.80;;;;;;6184023;23;20371;-71
2023/06/08 06:13:58;;;;;;;5.10;4.70;;;24.60;51.80;;;;;;6157482;23;20391;-70
2023/06/08 06:16:23;;;;;;;5.70;5.20;;;24.60;51.80;;;;;;6183710;23;20378;-69
2023/06/08 06:18:50;;;;;;;5.63;5.13;;;24.60;51.80;;;;;;6183950;23;20846;-71
2023/06/08 06:21:16;;;;;;;5.10;4.60;;;24.60;51.80;;;;;;6157571;23;20166;-69
2023/06/08 06:23:41;;;;;;;4.50;4.20;;;24.60;52.40;;;;;;6157963;23;20414;-69
2023/06/08 06:26:07;;;;;;;4.57;4.17;;;24.60;51.80;;;;;;6183948;23;20172;-70
2023/06/08 06:28:33;;;;;;;5.07;4.27;;;24.60;51.80;;;;;;6157558;23;20166;-70
2023/06/08 06:30:58;;;;;;;4.40;4.00;;;24.60;51.70;;;;;;6184273;23;20158;-69
2023/06/08 06:33:24;;;;;;;5.03;4.60;;;24.60;51.50;;;;;;6183791;23;20152;-69
2023/06/08 06:35:50;;;;;;;4.60;4.20;;;24.60;51.50;;;;;;6183972;23;20174;-69
2023/06/08 06:38:16;;;;;;;4.83;4.43;;;24.60;51.50;;;;;;6155425;23;20227;-70
2023/06/08 06:40:42;;;;;;;4.97;4.50;;;24.60;51.50;;;;;;6183923;23;20379;-69
2023/06/08 06:43:08;;;;;;;4.40;4.10;;;24.60;51.50;;;;;;6183605;23;20178;-71
2023/06/08 06:45:34;;;;;;;4.63;4.33;;;24.60;51.50;;;;;;6183649;23;20177;-70
2023/06/08 06:48:00;;;;;;;5.20;4.70;;;24.60;51.60;;;;;;6183597;23;20414;-70
2023/06/08 06:50:26;;;;;;;5.47;4.93;;;24.70;51.70;;;;;;6184204;23;20148;-69
2023/06/08 06:52:51;;;;;;;5.63;5.13;;;24.70;51.70;;;;;;6184030;23;20793;-71
2023/06/08 06:55:17;;;;;;;5.80;5.23;;;24.70;51.70;;;;;;6157543;23;20250;-70
2023/06/08 06:57:42;;;;;;;6.00;5.10;;;24.70;51.70;;;;;;6183635;23;20202;-70
2023/06/08 07:00:10;;;;;;;9.33;5.83;;;24.70;51.70;;;;;;6183938;23;20202;-69
2023/06/08 07:02:40;;;;;;;5.97;5.47;;;24.70;51.70;;;;;;6183832;23;20160;-70
2023/06/08 07:05:07;;;;;;;6.50;5.10;;;24.70;51.80;;;;;;6184115;23;20768;-70
2023/06/08 07:07:36;;;;;;;6.13;5.53;;;24.70;51.80;;;;;;6183698;23;20410;-69
2023/06/08 07:10:02;;;;;;;4.97;4.57;;;24.70;51.80;;;;;;6183701;23;20854;-69
2023/06/08 07:12:30;;;;;;;8.40;5.33;;;24.70;51.80;;;;;;6156969;23;20874;-70
2023/06/08 07:14:55;;;;;;;5.57;5.07;;;24.70;51.80;;;;;;6155545;23;20411;-70
2023/06/08 07:17:21;;;;;;;5.60;4.50;;;24.80;51.90;;;;;;6182279;23;20703;-69
2023/06/08 07:19:47;;;;;;;5.23;4.67;;;24.80;51.90;;;;;;6181492;23;20148;-71
2023/06/08 07:22:13;;;;;;;7.80;5.47;;;24.80;51.90;;;;;;6154939;23;20530;-71
2023/06/08 07:24:38;;;;;;;5.97;5.37;;;24.80;52.00;;;;;;6181388;23;20505;-71
2023/06/08 07:27:06;;;;;;;6.20;5.60;;;24.80;51.90;;;;;;6182346;23;20222;-68
2023/06/08 07:29:32;;;;;;;5.93;5.30;;;24.80;51.90;;;;;;6160012;23;20152;-71
2023/06/08 07:31:58;;;;;;;6.00;5.47;;;24.80;52.00;;;;;;6185453;23;20394;-69
2023/06/08 07:34:23;;;;;;;5.70;5.10;;;24.80;52.00;;;;;;6185242;23;20525;-69
2023/06/08 07:36:49;;;;;;;5.60;5.00;;;24.80;52.00;;;;;;6185357;23;20152;-71
2023/06/08 07:39:15;;;;;;;5.60;5.20;;;24.80;52.00;;;;;;6159491;23;20170;-70
2023/06/08 07:41:40;;;;;;;5.37;4.87;;;24.80;52.00;;;;;;6185369;23;20159;-69
2023/06/08 07:44:06;;;;;;;5.40;4.97;;;24.80;52.00;;;;;;6185366;23;20175;-69
2023/06/08 07:46:32;;;;;;;5.77;5.27;;;24.80;52.10;;;;;;6185296;23;20195;-68
2023/06/08 07:48:57;;;;;;;7.33;5.30;;;24.80;52.60;;;;;;6185323;23;20603;-68
2023/06/08 07:51:23;;;;;;;6.17;5.67;;;24.90;52.10;;;;;;6185288;23;20450;-68
2023/06/08 07:53:49;;;;;;;6.00;5.40;;;24.90;52.10;;;;;;6185143;23;20218;-66
2023/06/08 07:56:15;;;;;;;5.20;4.80;;;24.90;52.10;;;;;;6185105;23;20202;-68
2023/06/08 07:58:40;;;;;;;7.43;5.50;;;24.90;52.10;;;;;;6185442;23;20379;-69
2023/06/08 08:01:06;;;;;;;5.30;4.80;;;24.90;52.10;;;;;;6185220;23;20372;-68
2023/06/08 08:03:36;;;;;;;5.53;4.97;;;24.90;52.10;;;;;;6185240;23;20152;-67
2023/06/08 08:06:01;;;;;;;5.60;5.00;;;24.90;52.10;;;;;;6184878;23;20318;-68
2023/06/08 08:08:27;;;;;;;6.40;5.30;;;24.90;52.10;;;;;;6185163;23;20387;-68
2023/06/08 08:10:53;;;;;;;5.73;5.23;;;24.90;52.10;;;;;;6185321;23;20214;-68
2023/06/08 08:13:18;;;;;;;5.20;4.70;;;24.90;52.10;;;;;;6185127;23;20595;-66
2023/06/08 08:15:45;;;;;;;5.07;4.37;;;24.90;52.20;;;;;;6185013;23;20608;-67
2023/06/08 08:18:13;;;;;;;5.37;4.87;;;25.00;52.20;;;;;;6185363;23;20158;-68
2023/06/08 08:20:39;;;;;;;5.30;4.83;;;24.90;52.20;;;;;;6184952;23;20379;-68
2023/06/08 08:23:05;;;;;;;5.20;4.80;;;25.00;52.30;;;;;;6185030;23;20789;-69
2023/06/08 08:25:31;;;;;;;5.77;5.17;;;25.00;52.20;;;;;;6184820;23;20449;-70
2023/06/08 08:27:57;;;;;;;5.03;4.60;;;25.00;52.20;;;;;;6184830;23;20901;-67
2023/06/08 08:30:22;;;;;;;5.17;4.67;;;25.00;52.30;;;;;;6184961;23;20144;-68
2023/06/08 08:32:48;;;;;;;5.60;4.97;;;25.00;52.20;;;;;;6185043;23;20227;-69
2023/06/08 08:35:14;;;;;;;5.40;4.90;;;25.00;52.30;;;;;;6185362;23;20179;-70
2023/06/08 08:37:42;;;;;;;4.67;4.33;;;25.00;52.30;;;;;;6184862;23;20156;-68
2023/06/08 08:40:09;;;;;;;5.93;5.43;;;25.00;52.30;;;;;;6157931;23;20470;-69
2023/06/08 08:42:41;;;;;;;4.77;4.37;;;25.00;52.30;;;;;;6185381;23;20379;-68
2023/06/08 08:45:09;;;;;;;5.60;4.57;;;25.00;52.30;;;;;;6158299;23;20414;-68
2023/06/08 08:47:35;;;;;;;4.70;4.30;;;25.00;52.30;;;;;;6184671;23;20433;-69
2023/06/08 08:50:09;;;;;;;4.27;3.97;;;25.00;52.30;;;;;;6158190;23;20387;-68
2023/06/08 08:52:38;;;;;;;4.40;4.10;;;25.10;52.30;;;;;;6184850;23;20381;-67
2023/06/08 08:55:05;;;;;;;4.47;4.07;;;25.00;52.30;;;;;;6184736;23;20403;-67
2023/06/08 08:57:31;;;;;;;4.50;4.10;;;25.10;52.30;;;;;;6184702;23;20383;-68
2023/06/08 08:59:58;;;;;;;4.77;4.40;;;25.10;52.30;;;;;;6184628;23;20371;-69
2023/06/08 09:02:25;;;;;;;4.30;4.00;;;25.10;52.30;;;;;;6184607;23;20450;-67
2023/06/08 09:04:54;;;;;;;5.37;4.87;;;25.10;52.30;;;;;;6184445;23;20892;-68
2023/06/08 09:07:21;;;;;;;4.53;4.13;;;25.10;52.30;;;;;;6183957;23;20818;-71
2023/06/08 09:10:22;;;;;;;4.30;4.00;;;25.10;52.30;;;;;;6184058;23;20379;-67
2023/06/08 09:12:53;;;;;;;4.90;4.40;;;25.10;52.40;;;;;;6158141;23;20732;-66
2023/06/08 09:15:31;;;;;;;4.77;4.30;;;25.10;52.40;;;;;;6184390;23;20383;-68
2023/06/08 09:18:00;;;;;;;4.20;3.90;;;25.10;52.40;;;;;;6184501;23;20351;-68
2023/06/08 09:20:31;;;;;;;4.57;4.17;;;25.10;52.30;;;;;;6184406;23;20920;-69
2023/06/08 09:22:57;;;;;;;4.93;4.50;;;25.10;52.40;;;;;;6184094;23;20375;-68
2023/06/08 09:25:37;;;;;;;4.53;4.20;;;25.10;52.40;;;;;;6184223;23;20387;-66
2023/06/08 09:28:18;;;;;;;4.47;4.07;;;25.10;52.40;;;;;;6184037;23;20468;-67
2023/06/08 09:30:45;;;;;;;4.43;4.13;;;25.10;52.40;;;;;;6184197;23;20367;-66
2023/06/08 09:33:25;;;;;;;4.87;4.43;;;25.20;52.50;;;;;;6184242;23;20391;-67
2023/06/08 09:36:15;;;;;;;5.50;4.67;;;25.20;52.40;;;;;;6184345;23;20391;-68
2023/06/08 09:38:42;;;;;;;4.90;4.40;;;25.20;52.40;;;;;;6184589;23;20355;-68
2023/06/08 09:41:22;;;;;;;4.77;4.37;;;25.20;52.40;;;;;;6183433;23;20375;-68
2023/06/08 09:43:49;;;;;;;4.57;4.27;;;25.20;52.40;;;;;;6184050;23;20862;-68
2023/06/08 09:46:36;;;;;;;5.30;4.80;;;25.20;52.40;;;;;;6157758;23;20430;-68
2023/06/08 09:49:07;;;;;;;5.10;4.60;;;25.20;52.40;;;;;;6184474;23;20727;-68
2023/06/08 09:51:37;;;;;;;4.97;4.57;;;25.20;52.40;;;;;;6183698;23;20367;-68
2023/06/08 09:54:04;;;;;;;5.30;4.90;;;25.20;52.40;;;;;;6184149;23;20391;-68
2023/06/08 09:56:30;;;;;;;5.23;4.53;;;25.20;52.40;;;;;;6184062;23;20759;-69
2023/06/08 09:58:57;;;;;;;5.37;4.90;;;25.20;52.40;;;;;;6184769;23;20686;-67
2023/06/08 10:01:40;;;;;;;5.50;5.00;;;25.20;52.40;;;;;;6184127;23;20371;-68
2023/06/08 10:04:22;;;;;;;5.63;5.23;;;25.20;52.40;;;;;;6184089;23;20398;-67
2023/06/08 10:06:56;;;;;;;5.63;5.13;;;25.20;52.40;;;;;;6184052;23;20882;-68
2023/06/08 10:09:27;;;;;;;5.43;4.93;;;25.20;52.40;;;;;;6184109;23;20363;-69
2023/06/08 10:11:55;;;;;;;5.50;5.07;;;25.20;52.40;;;;;;6184101;23;20352;-69
2023/06/08 10:14:24;;;;;;;6.93;5.67;;;25.20;52.40;;;;;;6184050;23;20923;-69
2023/06/08 10:16:50;;;;;;;7.10;5.70;;;25.20;52.40;;;;;;6184370;23;20510;-69
2023/06/08 10:19:17;;;;;;;6.50;5.90;;;25.20;52.40;;;;;;6183990;23;20718;-69
2023/06/08 10:21:44;;;;;;;5.80;5.30;;;25.20;52.40;;;;;;6157845;23;20380;-69
2023/06/08 10:24:11;;;;;;;8.83;6.10;;;25.20;52.40;;;;;;6184272;23;20445;-68
2023/06/08 10:26:37;;;;;;;6.10;5.60;;;25.20;52.40;;;;;;6184028;23;20803;-68
2023/06/08 10:29:10;;;;;;;5.73;5.27;;;25.20;52.30;;;;;;6183886;23;20379;-68
2023/06/08 10:31:41;;;;;;;6.20;5.67;;;25.20;52.30;;;;;;6157492;23;20156;-68
2023/06/08 10:34:14;;;;;;;5.57;5.17;;;25.20;52.30;;;;;;6183900;23;20390;-68
2023/06/08 10:36:41;;;;;;;6.73;6.20;;;25.20;52.30;;;;;;6183885;23;20721;-68
2023/06/08 10:39:14;;;;;;;7.17;6.57;;;25.20;52.30;;;;;;6183845;23;20402;-67
2023/06/08 10:41:54;;;;;;;6.40;5.90;;;25.20;52.30;;;;;;6184099;23;20362;-68
2023/06/08 10:44:26;;;;;;;6.10;5.60;;;25.20;52.30;;;;;;6184240;23;20391;-70
2023/06/08 10:47:06;;;;;;;6.87;6.27;;;25.20;52.30;;;;;;6184232;23;20753;-69
2023/06/08 10:49:39;;;;;;;6.53;6.03;;;25.20;52.30;;;;;;6182080;23;20359;-69
2023/06/08 10:52:10;;;;;;;6.67;6.00;;;25.20;52.30;;;;;;6183233;23;20376;-68
2023/06/08 10:54:57;;;;;;;6.50;6.00;;;25.20;52.30;;;;;;6183313;23;20402;-69
2023/06/08 10:57:36;;;;;;;6.60;6.10;;;25.20;52.20;;;;;;6182482;23;20390;-68
2023/06/08 11:00:25;;;;;;;5.97;5.47;;;25.20;52.30;;;;;;6182431;23;20406;-68
2023/06/08 11:02:52;;;;;;;5.93;5.47;;;25.20;52.20;;;;;;6184405;23;20835;-67
2023/06/08 11:05:19;;;;;;;6.10;5.60;;;25.10;52.20;;;;;;6185692;23;20435;-68
2023/06/08 11:07:45;;;;;;;6.90;6.30;;;25.10;52.20;;;;;;6185618;23;20407;-68
2023/06/08 11:10:10;;;;;;;6.63;6.13;;;25.20;52.20;;;;;;6185703;23;20458;-67
2023/06/08 11:12:36;;;;;;;6.13;5.73;;;25.10;52.20;;;;;;6185524;23;20378;-69
2023/06/08 11:15:02;;;;;;;6.60;6.10;;;25.20;52.20;;;;;;6185335;23;20182;-68
2023/06/08 11:17:28;;;;;;;6.30;5.70;;;25.20;52.20;;;;;;6185463;23;20152;-70
2023/06/08 11:19:54;;;;;;;5.60;5.20;;;25.10;52.10;;;;;;6185523;23;20382;-69
2023/06/08 11:22:22;;;;;;;6.43;5.93;;;25.10;52.20;;;;;;6185549;23;20155;-69
2023/06/08 11:24:48;;;;;;;6.43;5.93;;;25.20;52.20;;;;;;6185446;23;20247;-68
2023/06/08 11:27:18;;;;;;;6.00;5.50;;;25.20;52.20;;;;;;6185300;23;20890;-68
2023/06/08 11:29:47;;;;;;;6.17;5.63;;;25.10;52.10;;;;;;6185412;23;20148;-69
2023/06/08 11:32:15;;;;;;;6.50;6.00;;;25.10;52.10;;;;;;6185433;23;20405;-68
2023/06/08 11:34:46;;;;;;;6.10;5.60;;;25.10;52.10;;;;;;6185194;23;20391;-68
2023/06/08 11:37:16;;;;;;;6.20;5.60;;;25.10;52.20;;;;;;6185431;23;20409;-68
2023/06/08 11:39:46;;;;;;;6.30;5.70;;;25.10;52.20;;;;;;6185403;23;20837;-69
2023/06/08 11:42:12;;;;;;;5.80;5.30;;;25.10;52.10;;;;;;6158878;23;20379;-68
2023/06/08 11:44:38;;;;;;;6.00;5.50;;;25.10;52.10;;;;;;6185288;23;20453;-68
2023/06/08 11:47:06;;;;;;;6.50;5.50;;;25.10;52.20;;;;;;6185254;23;20415;-68
2023/06/08 11:49:54;;;;;;;6.20;5.70;;;25.10;52.20;;;;;;6185188;23;20155;-68
2023/06/08 11:52:25;;;;;;;6.37;5.83;;;25.10;52.20;;;;;;6185112;23;20435;-68
2023/06/08 11:54:52;;;;;;;5.63;5.23;;;25.10;52.20;;;;;;6185050;23;20395;-69
2023/06/08 11:57:19;;;;;;;5.93;5.53;;;25.10;52.20;;;;;;6184753;23;20427;-69
2023/06/08 11:59:45;;;;;;;5.00;4.60;;;25.10;52.20;;;;;;6185233;23;20406;-69
2023/06/08 12:02:11;;;;;;;5.23;4.83;;;25.10;52.20;;;;;;6185162;23;20375;-69
2023/06/08 12:04:37;;;;;;;5.80;5.30;;;25.10;52.20;;;;;;6184285;23;20391;-69
2023/06/08 12:07:10;;;;;;;6.30;5.80;;;25.10;52.20;;;;;;6184946;23;20172;-69
2023/06/08 12:09:46;;;;;;;6.07;5.60;;;25.10;52.20;;;;;;6183550;23;20378;-69
2023/06/08 12:12:12;;;;;;;5.27;4.87;;;25.10;52.20;;;;;;6184307;23;20855;-68
2023/06/08 12:14:48;;;;;;;5.60;5.20;;;25.10;52.70;;;;;;6182765;23;20426;-68
2023/06/08 12:17:15;;;;;;;5.83;5.33;;;25.10;52.20;;;;;;6185122;23;20838;-69
2023/06/08 12:19:45;;;;;;;6.23;5.73;;;25.10;52.20;;;;;;6184999;23;20375;-69
2023/06/08 12:22:12;;;;;;;5.40;4.90;;;25.10;52.20;;;;;;6185004;23;20450;-69
2023/06/08 12:24:37;;;;;;;6.27;5.77;;;25.10;52.20;;;;;;6184915;23;20498;-69
2023/06/08 12:27:06;;;;;;;5.37;4.97;;;25.10;52.20;;;;;;6184914;23;20419;-70
2023/06/08 12:29:32;;;;;;;5.70;5.30;;;25.10;52.20;;;;;;6184898;23;20162;-68
2023/06/08 12:31:59;;;;;;;5.80;5.20;;;25.10;52.30;;;;;;6185005;23;20383;-67
2023/06/08 12:34:24;;;;;;;6.00;5.50;;;25.10;52.30;;;;;;6184754;23;20402;-68
2023/06/08 12:36:50;;;;;;;5.70;5.20;;;25.10;52.30;;;;;;6185136;23;20375;-70
2023/06/08 12:39:16;;;;;;;5.60;5.10;;;25.10;52.30;;;;;;6184890;23;20631;-68
2023/06/08 12:41:41;;;;;;;6.10;5.60;;;25.10;52.30;;;;;;6158019;23;20163;-66
2023/06/08 12:44:08;;;;;;;7.30;5.80;;;25.10;52.40;;;;;;6184687;23;20693;-67
2023/06/08 12:46:33;;;;;;;5.53;5.13;;;25.10;52.30;;;;;;6158275;23;20210;-68
2023/06/08 12:48:59;;;;;;;4.90;4.60;;;25.10;52.30;;;;;;6184668;23;20371;-68
2023/06/08 12:51:25;;;;;;;4.63;4.33;;;25.10;52.80;;;;;;6184779;23;20232;-68
2023/06/08 12:53:50;;;;;;;5.27;4.87;;;25.10;52.30;;;;;;6184685;23;20144;-69